Time;durP1;ratioP1;P1;durP2;ratioP2;P2;SDS_P1;SDS_P2;PMS_P1;PMS_P2;Temp;Humidity;BMP_temperature;BMP_pressure;BME280_temperature;BME280_humidity;BME280_pressure;Samples;Min_cycle;Max_cycle;Signal;HPM_P1;HPM_P2
2022/09/07 00:01:45;;;;;;;22.60;8.00;;;;;;;12.03;38.90;99387.80;105975;1276;108452;-64
2022/09/07 00:04:15;;;;;;;22.40;7.50;;;;;;;12.01;38.97;99388.31;106016;1277;100326;-66
2022/09/07 00:06:44;;;;;;;24.50;7.90;;;;;;;11.98;38.91;99385.10;106021;1276;97775;-64
2022/09/07 00:09:14;;;;;;;21.00;6.80;;;;;;;11.92;39.04;99382.70;106090;1276;112751;-65
2022/09/07 00:11:45;;;;;;;19.90;6.60;;;;;;;11.88;39.07;99382.44;106090;1277;99338;-65
2022/09/07 00:14:13;;;;;;;21.00;6.80;;;;;;;11.84;39.08;99387.70;106111;1276;107770;-65
2022/09/07 00:16:43;;;;;;;17.40;6.10;;;;;;;11.80;39.14;99389.27;106012;1278;99119;-66
2022/09/07 00:19:13;;;;;;;21.50;7.10;;;;;;;11.75;39.16;99387.80;105973;1279;99227;-64
2022/09/07 00:21:44;;;;;;;17.30;6.30;;;;;;;11.70;39.18;99388.31;106001;1278;113388;-65
2022/09/07 00:24:14;;;;;;;21.20;6.20;;;;;;;11.64;39.24;99393.00;105998;1279;97693;-63
2022/09/07 00:26:42;;;;;;;19.80;6.60;;;;;;;11.62;39.29;99387.50;105915;1278;108417;-63
2022/09/07 00:29:12;;;;;;;20.00;6.60;;;;;;;11.59;39.36;99382.19;106085;1276;99223;-64
2022/09/07 00:31:41;;;;;;;23.70;6.80;;;;;;;11.58;39.52;99386.16;106117;1276;99245;-63
2022/09/07 00:34:11;;;;;;;22.40;6.70;;;;;;;11.56;39.51;99383.14;106091;1276;112373;-65
2022/09/07 00:36:39;;;;;;;22.40;7.20;;;;;;;11.53;39.57;99380.67;106037;1277;99286;-64
2022/09/07 00:39:09;;;;;;;19.90;7.60;;;;;;;11.51;39.54;99382.07;106072;1276;108519;-64
2022/09/07 00:41:38;;;;;;;22.20;7.60;;;;;;;11.46;39.64;99377.93;106103;1277;99206;-66
2022/09/07 00:44:42;;;;;;;18.90;6.50;;;;;;;11.44;39.76;99380.45;105988;1278;96628;-66
2022/09/07 00:47:21;;;;;;;20.70;6.20;;;;;;;11.41;39.83;99380.61;105971;1279;113902;-67
2022/09/07 00:49:54;;;;;;;20.10;6.00;;;;;;;11.39;39.93;99379.21;106055;1276;99110;-63
2022/09/07 00:52:28;;;;;;;18.30;6.60;;;;;;;11.36;39.90;99379.23;105957;1279;107818;-64
2022/09/07 00:55:03;;;;;;;15.60;5.90;;;;;;;11.32;40.07;99373.83;105939;1278;96642;-65
2022/09/07 00:57:34;;;;;;;18.40;6.40;;;;;;;11.29;40.04;99373.27;106079;1276;99211;-66
2022/09/07 01:00:05;;;;;;;19.80;6.20;;;;;;;11.26;40.10;99373.20;105978;1278;112792;-64
2022/09/07 01:02:35;;;;;;;20.50;6.90;;;;;;;11.22;40.17;99370.94;106093;1276;99170;-66
2022/09/07 01:05:32;;;;;;;18.10;6.30;;;;;;;11.18;40.06;99370.91;106010;1277;109066;-64
2022/09/07 01:08:02;;;;;;;21.30;7.00;;;;;;;11.14;40.20;99370.80;105929;1279;99274;-64
2022/09/07 01:10:32;;;;;;;22.60;7.10;;;;;;;11.12;40.24;99369.86;106017;1276;99267;-64
2022/09/07 01:13:02;;;;;;;19.00;6.20;;;;;;;11.09;40.30;99372.39;106086;1276;113210;-67
2022/09/07 01:15:38;;;;;;;25.00;7.50;;;;;;;11.08;40.47;99371.93;106040;1276;99307;-66
2022/09/07 01:18:11;;;;;;;19.90;6.60;;;;;;;11.07;40.54;99367.38;106050;1276;107866;-65
2022/09/07 01:20:53;;;;;;;23.30;7.20;;;;;;;11.05;40.55;99362.39;105871;1280;97079;-66
2022/09/07 01:23:53;;;;;;;20.90;7.00;;;;;;;11.03;40.55;99363.91;106062;1276;99185;-66
2022/09/07 01:26:32;;;;;;;20.20;6.70;;;;;;;10.99;40.67;99362.06;105978;1276;113487;-64
2022/09/07 01:29:20;;;;;;;21.60;7.20;;;;;;;10.96;40.71;99363.02;105958;1279;98372;-65
2022/09/07 01:32:23;;;;;;;23.70;7.40;;;;;;;10.93;40.83;99361.26;105951;1278;108367;-64
2022/09/07 01:34:55;;;;;;;21.80;7.20;;;;;;;10.86;40.86;99357.44;105951;1277;99342;-64
2022/09/07 01:37:37;;;;;;;22.60;7.10;;;;;;;10.84;40.76;99356.37;106077;1276;99234;-66
2022/09/07 01:40:14;;;;;;;19.30;6.70;;;;;;;10.79;40.81;99354.92;106021;1276;111264;-64
2022/09/07 01:43:07;;;;;;;20.80;7.40;;;;;;;10.77;41.07;99352.27;106070;1276;99342;-64
2022/09/07 01:45:39;;;;;;;19.50;7.50;;;;;;;10.76;41.15;99347.54;106094;1276;106815;-64
2022/09/07 01:48:13;;;;;;;22.00;7.80;;;;;;;10.75;41.09;99345.86;106026;1277;99246;-65
2022/09/07 01:50:52;;;;;;;23.40;7.70;;;;;;;10.73;41.12;99345.77;105937;1279;97713;-66
2022/09/07 01:53:31;;;;;;;21.80;7.90;;;;;;;10.72;41.22;99339.28;105989;1278;113442;-65
2022/09/07 01:56:37;;;;;;;22.40;7.70;;;;;;;10.70;41.30;99340.64;105996;1277;99256;-66
2022/09/07 01:59:20;;;;;;;23.70;7.90;;;;;;;10.67;41.40;99336.79;106078;1277;107722;-62
2022/09/07 02:02:01;;;;;;;24.90;8.20;;;;;;;10.64;41.38;99334.52;106014;1276;99216;-63
2022/09/07 02:04:54;;;;;;;21.90;7.00;;;;;;;10.62;41.49;99334.34;106040;1278;96577;-64
2022/09/07 02:07:56;;;;;;;20.80;7.50;;;;;;;10.57;41.45;99333.20;106066;1277;112364;-64
2022/09/07 02:10:36;;;;;;;21.50;7.90;;;;;;;10.52;41.49;99326.12;105330;1277;96566;-64
2022/09/07 02:13:13;;;;;;;21.70;7.50;;;;;;;10.48;41.65;99319.29;106092;1277;108444;-64
2022/09/07 02:15:54;;;;;;;22.90;8.20;;;;;;;10.43;41.61;99319.43;106091;1277;99325;-63
2022/09/07 02:18:28;;;;;;;22.30;7.90;;;;;;;10.39;41.69;99315.42;106107;1276;96657;-64
2022/09/07 02:21:00;;;;;;;27.60;8.70;;;;;;;10.37;41.75;99311.86;105984;1278;111695;-63
2022/09/07 02:23:38;;;;;;;22.70;8.50;;;;;;;10.34;41.78;99311.16;106001;1278;99305;-64
2022/09/07 02:26:14;;;;;;;23.20;8.10;;;;;;;10.32;41.97;99306.17;105985;1276;107588;-64
2022/09/07 02:28:44;;;;;;;22.60;8.60;;;;;;;10.29;41.91;99304.91;106071;1276;97859;-64
2022/09/07 02:31:14;;;;;;;21.40;7.50;;;;;;;10.26;41.96;99302.28;106072;1276;96641;-63
2022/09/07 02:33:46;;;;;;;22.10;7.90;;;;;;;10.23;41.98;99300.86;105964;1277;111531;-64
2022/09/07 02:36:20;;;;;;;21.50;8.00;;;;;;;10.20;41.99;99304.45;105939;1277;99250;-63
2022/09/07 02:38:48;;;;;;;24.30;8.20;;;;;;;10.16;42.08;99298.17;105917;1279;107962;-63
2022/09/07 02:41:41;;;;;;;22.50;8.50;;;;;;;10.13;42.15;99295.55;105975;1277;96616;-64
2022/09/07 02:44:23;;;;;;;23.70;7.40;;;;;;;10.10;42.30;99294.16;106074;1276;99241;-64
2022/09/07 02:47:39;;;;;;;19.50;7.00;;;;;;;10.07;42.28;99288.85;106062;1276;112048;-64
2022/09/07 02:50:35;;;;;;;20.50;7.50;;;;;;;10.01;42.44;99291.06;106020;1277;98390;-64
2022/09/07 02:53:40;;;;;;;22.20;7.70;;;;;;;9.96;42.45;99286.35;106035;1276;110478;-64
2022/09/07 02:56:15;;;;;;;25.60;8.10;;;;;;;9.91;42.51;99286.50;106040;1276;99310;-64
2022/09/07 02:59:11;;;;;;;23.90;7.90;;;;;;;9.88;42.54;99283.91;106012;1278;99199;-60
2022/09/07 03:02:20;;;;;;;22.90;8.30;;;;;;;9.82;42.64;99288.17;106079;1277;113412;-62
2022/09/07 03:05:03;;;;;;;22.10;7.80;;;;;;;9.77;42.74;99281.27;105840;1279;99234;-63
2022/09/07 03:07:39;;;;;;;24.00;7.80;;;;;;;9.73;42.70;99273.70;105911;1279;108406;-64
2022/09/07 03:10:15;;;;;;;19.90;7.80;;;;;;;9.69;42.76;99269.20;105957;1278;99280;-63
2022/09/07 03:12:47;;;;;;;20.30;7.50;;;;;;;9.66;42.82;99268.86;105951;1279;99425;-64
2022/09/07 03:15:22;;;;;;;24.10;8.50;;;;;;;9.62;42.84;99269.65;105992;1277;112969;-64
2022/09/07 03:17:52;;;;;;;20.20;7.40;;;;;;;9.58;42.97;99270.09;105914;1280;98465;-64
2022/09/07 03:20:23;;;;;;;23.30;8.00;;;;;;;9.56;42.95;99270.25;106002;1277;108451;-63
2022/09/07 03:22:52;;;;;;;24.10;9.30;;;;;;;9.53;43.04;99269.73;106049;1277;99330;-64
2022/09/07 03:25:21;;;;;;;24.40;8.40;;;;;;;9.49;43.02;99273.66;106023;1278;96528;-65
2022/09/07 03:27:51;;;;;;;21.10;8.00;;;;;;;9.48;43.08;99269.17;106057;1277;112730;-62
2022/09/07 03:30:21;;;;;;;25.10;7.50;;;;;;;9.44;43.17;99265.01;106010;1278;99277;-64
2022/09/07 03:32:50;;;;;;;25.00;8.60;;;;;;;9.41;43.23;99257.59;106042;1277;108386;-64
2022/09/07 03:35:18;;;;;;;25.60;8.40;;;;;;;9.37;43.25;99262.20;106037;1276;96711;-64
2022/09/07 03:37:49;;;;;;;24.80;8.60;;;;;;;9.34;43.37;99264.02;106012;1277;99387;-65
2022/09/07 03:40:17;;;;;;;24.90;9.00;;;;;;;9.30;43.32;99267.63;105968;1277;113527;-64
2022/09/07 03:42:49;;;;;;;22.90;7.90;;;;;;;9.28;43.50;99267.27;105948;1277;99245;-64
2022/09/07 03:45:18;;;;;;;23.20;8.20;;;;;;;9.24;43.50;99269.95;105881;1278;108533;-65
2022/09/07 03:47:49;;;;;;;22.60;8.30;;;;;;;9.20;43.48;99267.37;105970;1277;97719;-64
2022/09/07 03:50:18;;;;;;;21.80;8.10;;;;;;;9.18;43.68;99270.35;106066;1277;99205;-65
2022/09/07 03:52:46;;;;;;;23.20;9.00;;;;;;;9.15;43.65;99268.95;105974;1277;113468;-64
2022/09/07 03:55:14;;;;;;;21.60;8.70;;;;;;;9.14;43.85;99272.75;103802;1278;3074276;-64
2022/09/07 03:57:42;;;;;;;20.50;8.00;;;;;;;9.11;43.88;99268.14;105878;1277;99327;-65
2022/09/07 04:00:13;;;;;;;22.40;9.30;;;;;;;9.08;43.88;99269.52;105907;1277;97986;-64
2022/09/07 04:02:41;;;;;;;22.00;8.50;;;;;;;9.06;43.88;99270.19;105928;1277;112947;-64
2022/09/07 04:05:11;;;;;;;21.40;8.50;;;;;;;9.06;43.93;99267.70;105982;1278;99220;-63
2022/09/07 04:07:39;;;;;;;23.40;8.20;;;;;;;9.05;43.92;99262.52;105973;1277;108332;-63
2022/09/07 04:10:08;;;;;;;24.70;8.80;;;;;;;9.04;44.17;99264.33;105970;1277;99220;-64
2022/09/07 04:12:38;;;;;;;23.70;9.00;;;;;;;9.02;44.15;99267.98;106021;1277;99132;-63
2022/09/07 04:15:10;;;;;;;22.10;9.00;;;;;;;9.01;44.26;99270.74;105951;1277;113395;-63
2022/09/07 04:17:38;;;;;;;22.20;9.20;;;;;;;9.00;44.27;99274.15;105971;1278;99358;-63
2022/09/07 04:20:10;;;;;;;24.90;10.20;;;;;;;8.98;44.43;99274.42;105940;1279;108780;-63
2022/09/07 04:22:37;;;;;;;27.70;10.90;;;;;;;8.97;44.32;99274.48;105906;1281;99431;-64
2022/09/07 04:25:05;;;;;;;29.60;12.60;;;;;;;8.96;44.36;99271.19;106004;1277;99333;-63
2022/09/07 04:27:35;;;;;;;29.80;12.40;;;;;;;8.94;44.48;99275.23;106020;1278;113446;-64
2022/09/07 04:30:03;;;;;;;28.00;11.20;;;;;;;8.91;44.48;99275.91;106039;1278;96699;-64
2022/09/07 04:32:33;;;;;;;75.60;38.20;;;;;;;8.91;44.57;99279.45;105943;1278;107589;-65
2022/09/07 04:35:02;;;;;;;31.90;14.00;;;;;;;8.91;44.64;99283.17;106033;1278;99308;-64
2022/09/07 04:37:32;;;;;;;26.40;10.80;;;;;;;8.89;44.70;99285.75;106086;1277;96683;-63
2022/09/07 04:40:00;;;;;;;24.60;10.00;;;;;;;8.90;44.76;99282.90;106044;1278;115467;-64
2022/09/07 04:42:29;;;;;;;26.20;9.80;;;;;;;8.90;44.72;99283.79;106036;1277;99266;-64
2022/09/07 04:44:59;;;;;;;26.00;10.50;;;;;;;8.90;44.72;99286.23;105984;1277;107384;-64
2022/09/07 04:47:29;;;;;;;25.30;9.80;;;;;;;8.91;44.92;99288.65;106043;1277;96647;-63
2022/09/07 04:49:59;;;;;;;23.50;8.70;;;;;;;8.92;45.04;99293.90;106018;1277;99170;-64
2022/09/07 04:52:27;;;;;;;22.20;9.40;;;;;;;8.93;45.04;99292.80;105956;1278;112882;-64
2022/09/07 04:54:55;;;;;;;24.10;8.70;;;;;;;8.91;44.96;99289.88;106016;1277;96725;-64
2022/09/07 04:57:25;;;;;;;26.50;10.30;;;;;;;8.91;45.12;99294.66;105896;1281;108245;-64
2022/09/07 04:59:54;;;;;;;25.70;10.00;;;;;;;8.91;45.17;99290.55;106011;1277;99401;-64
2022/09/07 05:02:24;;;;;;;25.00;9.50;;;;;;;8.92;45.25;99287.02;105974;1277;99195;-64
2022/09/07 05:04:53;;;;;;;25.20;9.80;;;;;;;8.93;45.24;99287.48;106948;1277;113365;-64
2022/09/07 05:07:30;;;;;;;24.20;10.30;;;;;;;8.93;45.35;99286.08;105926;1277;99351;-63
2022/09/07 05:10:00;;;;;;;23.80;8.60;;;;;;;8.92;45.39;99286.09;105909;1277;108367;-64
2022/09/07 05:12:28;;;;;;;28.20;11.60;;;;;;;8.94;45.37;99287.61;105959;1277;96684;-65
2022/09/07 05:14:57;;;;;;;111.90;62.80;;;;;;;8.97;45.62;99289.02;105906;1277;99315;-64
2022/09/07 05:17:25;;;;;;;36.60;15.50;;;;;;;8.98;45.79;99289.98;105876;1278;113437;-64
2022/09/07 05:19:55;;;;;;;27.30;10.20;;;;;;;9.02;45.75;99287.63;105940;1277;97992;-66
2022/09/07 05:22:25;;;;;;;27.80;10.00;;;;;;;9.04;45.78;99284.30;105919;1277;108424;-65
2022/09/07 05:24:53;;;;;;;24.60;9.70;;;;;;;9.04;45.75;99280.45;105975;1278;98693;-64
2022/09/07 05:27:21;;;;;;;25.60;9.40;;;;;;;9.04;45.78;99278.98;106002;1277;99300;-64
2022/09/07 05:29:51;;;;;;;25.50;9.30;;;;;;;9.05;45.87;99287.25;105852;1278;113353;-65
2022/09/07 05:32:28;;;;;;;27.00;9.50;;;;;;;9.08;46.06;99291.51;105945;1278;97845;-65
2022/09/07 05:34:56;;;;;;;24.70;9.40;;;;;;;9.10;45.96;99289.78;106001;1277;108416;-64
2022/09/07 05:37:24;;;;;;;24.60;9.70;;;;;;;9.12;46.14;99289.86;105983;1277;99336;-65
2022/09/07 05:39:55;;;;;;;25.10;9.20;;;;;;;9.14;46.23;99285.50;105977;1277;96636;-65
2022/09/07 05:42:26;;;;;;;25.20;10.00;;;;;;;9.16;46.24;99290.10;105960;1277;112810;-64
2022/09/07 05:44:54;;;;;;;26.30;10.20;;;;;;;9.21;46.33;99287.84;106033;1277;99319;-65
2022/09/07 05:47:24;;;;;;;26.20;9.50;;;;;;;9.27;46.35;99286.80;105977;1277;108774;-64
2022/09/07 05:49:53;;;;;;;25.60;10.70;;;;;;;9.31;46.42;99281.20;105890;1278;99280;-62
2022/09/07 05:52:25;;;;;;;27.10;9.90;;;;;;;9.35;46.55;99281.85;106034;1277;96638;-63
2022/09/07 05:54:54;;;;;;;23.90;9.90;;;;;;;9.38;46.56;99285.33;106032;1277;113351;-64
2022/09/07 05:57:41;;;;;;;26.50;9.70;;;;;;;9.43;46.63;99279.73;105976;1277;99478;-64
2022/09/07 06:00:13;;;;;;;25.70;10.00;;;;;;;9.46;46.51;99281.83;106059;1277;108411;-64
2022/09/07 06:02:41;;;;;;;25.40;9.90;;;;;;;9.51;46.63;99282.56;105983;1276;100314;-64
2022/09/07 06:05:10;;;;;;;26.20;10.30;;;;;;;9.57;46.78;99280.26;106110;1277;99316;-64
2022/09/07 06:07:38;;;;;;;25.60;9.90;;;;;;;9.63;46.83;99277.06;106003;1277;113387;-65
2022/09/07 06:10:08;;;;;;;24.60;9.70;;;;;;;9.68;46.70;99277.41;105876;1278;99191;-64
2022/09/07 06:12:58;;;;;;;26.90;9.30;;;;;;;9.74;46.86;99277.42;105987;1277;107373;-64
2022/09/07 06:15:27;;;;;;;26.30;10.30;;;;;;;9.78;46.91;99278.54;106023;1276;99304;-63
2022/09/07 06:17:56;;;;;;;26.20;9.50;;;;;;;9.82;46.95;99282.84;106037;1276;99253;-68
2022/09/07 06:20:23;;;;;;;25.70;10.00;;;;;;;9.89;47.09;99281.73;105910;1277;112642;-67
2022/09/07 06:22:55;;;;;;;28.80;10.20;;;;;;;9.95;47.16;99280.04;106056;1277;97742;-67
2022/09/07 06:25:25;;;;;;;25.90;9.90;;;;;;;10.04;47.15;99282.64;106017;1275;108115;-61
2022/09/07 06:27:54;;;;;;;28.10;10.70;;;;;;;10.11;47.21;99279.88;105912;1277;99296;-65
2022/09/07 06:30:25;;;;;;;73.90;43.10;;;;;;;10.18;47.29;99281.38;105953;1277;99359;-65
2022/09/07 06:32:54;;;;;;;34.40;15.00;;;;;;;10.25;47.27;99280.17;105963;1276;113456;-66
2022/09/07 06:35:23;;;;;;;25.60;10.90;;;;;;;10.33;47.35;99281.63;105862;1278;99448;-64
2022/09/07 06:37:53;;;;;;;26.40;10.50;;;;;;;10.41;47.42;99280.60;105790;1277;108372;-65
2022/09/07 06:40:21;;;;;;;31.70;10.30;;;;;;;10.48;47.51;99286.82;105971;1277;99332;-64
2022/09/07 06:42:49;;;;;;;27.90;10.80;;;;;;;10.57;47.45;99298.45;105977;1277;99274;-65
2022/09/07 06:45:19;;;;;;;25.60;9.80;;;;;;;10.67;47.48;99292.09;105985;1277;113414;-65
2022/09/07 06:47:47;;;;;;;33.00;10.10;;;;;;;10.78;47.58;99288.49;105993;1276;99247;-65
2022/09/07 06:50:16;;;;;;;27.30;10.10;;;;;;;10.89;47.53;99291.96;105983;1277;108420;-65
2022/09/07 06:52:45;;;;;;;26.40;9.60;;;;;;;10.99;47.71;99293.02;105983;1277;99321;-68
2022/09/07 06:55:42;;;;;;;25.00;9.50;;;;;;;11.10;47.80;99291.41;106036;1277;99314;-64
2022/09/07 06:58:09;;;;;;;25.80;9.50;;;;;;;11.19;47.78;99292.91;105979;1277;112722;-66
2022/09/07 07:00:37;;;;;;;27.10;10.10;;;;;;;11.27;47.87;99296.02;105966;1277;99343;-65
2022/09/07 07:03:05;;;;;;;25.30;10.30;;;;;;;11.38;47.89;99294.08;105996;1277;108101;-66
2022/09/07 07:05:35;;;;;;;26.20;10.70;;;;;;;11.47;47.89;99292.33;106036;1276;99390;-66
2022/09/07 07:08:04;;;;;;;26.40;9.40;;;;;;;11.55;47.99;99291.92;106017;1276;99396;-65
2022/09/07 07:10:38;;;;;;;27.90;10.70;;;;;;;11.63;47.91;99292.39;106016;1277;113562;-65
2022/09/07 07:13:06;;;;;;;26.40;10.30;;;;;;;11.70;48.05;99290.14;106025;1277;98380;-63
2022/09/07 07:15:37;;;;;;;24.60;9.60;;;;;;;11.76;48.12;99291.27;106012;1276;108471;-65
2022/09/07 07:18:07;;;;;;;24.80;9.70;;;;;;;11.83;48.09;99289.34;105975;1276;99291;-66
2022/09/07 07:20:48;;;;;;;24.60;9.20;;;;;;;11.93;48.07;99283.84;105948;1278;97795;-65
2022/09/07 07:23:16;;;;;;;23.80;9.20;;;;;;;12.07;48.09;99287.98;105965;1277;113380;-65
2022/09/07 07:25:46;;;;;;;27.90;10.60;;;;;;;13.11;47.19;99290.98;106035;1277;99301;-65
2022/09/07 07:28:15;;;;;;;23.70;8.90;;;;;;;14.71;46.48;99291.61;106025;1277;108375;-66
2022/09/07 07:31:06;;;;;;;22.50;9.10;;;;;;;16.41;46.37;99292.58;105980;1277;99352;-65
2022/09/07 07:33:41;;;;;;;21.40;8.90;;;;;;;17.86;46.34;99282.64;106023;1277;97783;-65
2022/09/07 07:36:16;;;;;;;23.10;9.00;;;;;;;19.38;46.35;99284.39;105980;1277;113051;-65
2022/09/07 07:38:48;;;;;;;23.80;9.50;;;;;;;20.85;46.16;99285.16;105994;1276;97607;-64
2022/09/07 07:41:34;;;;;;;24.00;10.10;;;;;;;22.33;45.88;99290.17;105951;1277;107429;-65
2022/09/07 07:44:22;;;;;;;22.50;10.20;;;;;;;23.72;45.29;99283.48;105978;1277;99148;-65
2022/09/07 07:46:51;;;;;;;24.20;10.40;;;;;;;24.79;45.30;99283.98;106036;1277;99349;-66
2022/09/07 07:49:19;;;;;;;21.50;10.00;;;;;;;25.82;44.96;99284.90;106005;1277;113398;-65
2022/09/07 07:51:48;;;;;;;23.90;9.60;;;;;;;26.82;44.84;99280.29;106091;1277;99350;-65
2022/09/07 07:54:37;;;;;;;23.80;9.40;;;;;;;27.90;44.23;99278.63;106010;1277;108479;-64
2022/09/07 07:57:07;;;;;;;22.20;8.80;;;;;;;28.75;44.43;99281.23;105741;1278;99346;-64
2022/09/07 07:59:35;;;;;;;22.90;9.10;;;;;;;29.56;44.06;99276.73;105843;1277;99176;-69
2022/09/07 08:02:07;;;;;;;20.10;8.60;;;;;;;30.37;43.86;99264.19;105944;1275;114273;-67
2022/09/07 08:04:35;;;;;;;23.60;8.70;;;;;;;30.98;43.44;99269.56;105965;1277;97050;-65
2022/09/07 08:07:06;;;;;;;20.90;9.00;;;;;;;31.58;43.07;99270.78;105928;1277;108421;-67
2022/09/07 08:09:42;;;;;;;22.30;8.80;;;;;;;32.06;42.77;99271.67;105936;1277;99350;-67
2022/09/07 08:12:15;;;;;;;20.60;8.70;;;;;;;32.61;42.72;99263.23;105883;1277;96662;-68
2022/09/07 08:14:48;;;;;;;19.20;9.30;;;;;;;33.06;41.91;99266.14;105966;1277;111942;-67
2022/09/07 08:17:18;;;;;;;18.90;8.40;;;;;;;33.44;41.56;99274.14;105990;1277;97821;-66
2022/09/07 08:19:47;;;;;;;22.60;9.20;;;;;;;33.90;41.30;99278.96;106048;1277;107863;-69
2022/09/07 08:22:19;;;;;;;21.30;9.60;;;;;;;34.16;40.64;99273.80;106000;1277;98377;-65
2022/09/07 08:24:48;;;;;;;20.50;8.10;;;;;;;34.46;40.53;99269.35;105955;1277;99786;-66
2022/09/07 08:27:19;;;;;;;20.30;8.30;;;;;;;34.78;40.14;99263.33;105918;1276;113773;-66
2022/09/07 08:29:47;;;;;;;19.00;7.90;;;;;;;34.97;39.43;99258.09;105957;1277;99735;-67
2022/09/07 08:32:15;;;;;;;17.50;7.90;;;;;;;35.25;39.19;99257.88;105995;1276;108437;-66
2022/09/07 08:34:43;;;;;;;19.60;8.80;;;;;;;35.44;38.72;99256.13;106037;1276;99258;-65
2022/09/07 08:37:11;;;;;;;21.40;8.10;;;;;;;35.71;38.26;99256.98;106033;1277;99253;-65
2022/09/07 08:39:41;;;;;;;19.20;7.60;;;;;;;35.98;37.91;99246.58;105989;1276;113084;-65
2022/09/07 08:42:58;;;;;;;20.90;7.80;;;;;;;36.27;37.40;99246.52;105993;1276;99231;-67
2022/09/07 08:45:43;;;;;;;20.60;7.80;;;;;;;36.63;36.73;99245.21;105943;1276;106550;-66
2022/09/07 08:48:17;;;;;;;19.70;8.30;;;;;;;36.69;36.21;99238.45;105842;1277;99247;-66
2022/09/07 08:50:58;;;;;;;30.30;7.60;;;;;;;36.82;35.79;99249.38;105881;1277;99218;-66
2022/09/07 08:53:28;;;;;;;17.00;7.60;;;;;;;37.07;35.28;99251.32;105802;1279;112798;-65
2022/09/07 08:56:11;;;;;;;17.50;6.80;;;;;;;37.18;34.71;99253.15;105944;1276;99736;-65
2022/09/07 08:58:52;;;;;;;22.50;7.60;;;;;;;37.35;34.60;99246.46;105939;1277;107746;-65
2022/09/07 09:01:38;;;;;;;22.00;7.40;;;;;;;37.52;34.13;99241.30;105936;1276;96557;-66
2022/09/07 09:04:22;;;;;;;21.10;8.10;;;;;;;37.66;33.65;99242.98;105977;1276;99204;-67
2022/09/07 09:07:10;;;;;;;24.80;8.90;;;;;;;37.70;33.19;99244.62;105864;1276;113989;-65
2022/09/07 09:09:50;;;;;;;16.40;7.60;;;;;;;37.63;32.55;99243.45;106011;1276;97734;-66
2022/09/07 09:12:27;;;;;;;20.20;8.00;;;;;;;37.55;32.30;99238.27;105885;1276;107197;-70
2022/09/07 09:15:15;;;;;;;15.60;7.10;;;;;;;37.52;31.94;99238.23;105886;1276;96669;-66
2022/09/07 09:18:01;;;;;;;21.80;6.80;;;;;;;37.48;31.57;99237.31;105972;1276;98061;-66
2022/09/07 09:20:39;;;;;;;15.70;6.60;;;;;;;37.30;31.01;99236.63;105938;1276;113689;-67
2022/09/07 09:23:14;;;;;;;14.70;6.30;;;;;;;37.20;30.69;99234.17;105907;1277;99815;-68
2022/09/07 09:25:52;;;;;;;15.50;6.80;;;;;;;37.19;30.52;99231.85;105940;1276;107769;-67
2022/09/07 09:28:23;;;;;;;21.50;9.00;;;;;;;37.17;30.16;99225.64;105932;1275;97777;-67
2022/09/07 09:30:56;;;;;;;18.10;6.30;;;;;;;37.08;29.96;99227.58;105926;1276;99220;-66
2022/09/07 09:33:28;;;;;;;16.20;6.70;;;;;;;37.20;29.80;99220.48;105921;1278;112334;-68
2022/09/07 09:36:01;;;;;;;18.50;6.30;;;;;;;37.29;29.37;99212.89;105919;1277;97033;-67
2022/09/07 09:38:38;;;;;;;13.60;5.70;;;;;;;37.20;28.84;99214.89;105869;1277;108460;-67
2022/09/07 09:41:14;;;;;;;14.20;6.00;;;;;;;37.02;28.82;99209.37;105983;1276;99266;-68
2022/09/07 09:43:52;;;;;;;15.00;6.30;;;;;;;36.72;28.48;99205.90;105948;1276;98017;-67
2022/09/07 09:46:30;;;;;;;15.50;6.30;;;;;;;36.52;28.28;99197.60;105995;1276;113458;-67
2022/09/07 09:49:03;;;;;;;18.20;5.90;;;;;;;36.18;28.20;99199.85;105907;1276;97967;-66
2022/09/07 09:51:40;;;;;;;18.80;6.50;;;;;;;35.70;28.00;99198.99;105885;1277;107849;-66
2022/09/07 09:54:36;;;;;;;19.70;6.30;;;;;;;35.07;27.90;99199.99;105871;1277;97769;-66
2022/09/07 09:57:05;;;;;;;12.50;5.90;;;;;;;34.50;27.58;99192.77;105899;1276;99227;-64
2022/09/07 09:59:35;;;;;;;24.10;7.30;;;;;;;33.86;27.48;99198.31;105890;1278;113292;-71
2022/09/07 10:02:31;;;;;;;17.50;6.40;;;;;;;33.07;27.30;99199.30;105966;1277;99255;-69
2022/09/07 10:05:29;;;;;;;17.00;6.50;;;;;;;32.40;26.94;99196.61;106010;1277;108467;-67
2022/09/07 10:07:58;;;;;;;17.10;7.20;;;;;;;31.91;27.19;99195.41;105914;1277;99164;-67
2022/09/07 10:10:30;;;;;;;20.20;6.50;;;;;;;31.56;26.99;99189.88;105931;1277;99772;-68
2022/09/07 10:12:58;;;;;;;18.50;6.60;;;;;;;31.21;26.91;99185.75;105945;1276;113877;-66
2022/09/07 10:15:36;;;;;;;17.50;6.80;;;;;;;30.89;26.76;99182.85;105914;1277;97049;-62
2022/09/07 10:18:36;;;;;;;14.80;6.80;;;;;;;30.52;26.80;99181.35;105955;1277;107381;-64
2022/09/07 10:21:26;;;;;;;18.00;6.50;;;;;;;30.12;26.61;99182.19;105975;1276;99128;-67
2022/09/07 10:23:59;;;;;;;20.80;7.20;;;;;;;29.70;26.58;99186.09;105953;1276;99183;-65
2022/09/07 10:26:30;;;;;;;19.00;7.50;;;;;;;29.42;26.60;99180.21;105921;1277;113362;-65
2022/09/07 10:29:28;;;;;;;18.60;6.90;;;;;;;29.09;26.53;99189.08;105956;1277;99238;-64
2022/09/07 10:32:23;;;;;;;14.80;6.10;;;;;;;28.74;26.34;99184.84;105931;1277;110469;-64
2022/09/07 10:35:08;;;;;;;15.80;5.80;;;;;;;28.48;26.44;99183.48;105951;1277;96637;-65
2022/09/07 10:37:57;;;;;;;14.70;5.70;;;;;;;28.32;26.49;99175.27;105976;1277;99214;-65
2022/09/07 10:40:32;;;;;;;16.00;6.40;;;;;;;28.20;26.80;99178.99;105970;1277;112746;-64
2022/09/07 10:43:35;;;;;;;16.80;6.40;;;;;;;28.07;26.68;99178.63;105831;1277;99045;-63
2022/09/07 10:46:26;;;;;;;17.80;6.80;;;;;;;27.91;26.88;99178.80;105721;1278;108809;-68
2022/09/07 10:49:23;;;;;;;16.40;6.20;;;;;;;27.77;26.82;99175.88;105881;1278;99253;-65
2022/09/07 10:52:08;;;;;;;20.80;6.30;;;;;;;27.68;26.93;99172.98;105876;1277;97723;-64
2022/09/07 10:54:55;;;;;;;16.50;6.40;;;;;;;27.54;26.64;99175.77;105832;1277;113374;-64
2022/09/07 10:57:59;;;;;;;21.80;7.30;;;;;;;27.39;26.84;99174.55;105914;1276;98001;-66
2022/09/07 11:00:50;;;;;;;18.00;6.60;;;;;;;27.31;26.64;99170.89;105944;1276;108478;-64
2022/09/07 11:03:24;;;;;;;19.40;7.20;;;;;;;27.08;26.83;99175.34;105981;1277;99204;-65
2022/09/07 11:06:22;;;;;;;20.60;6.80;;;;;;;26.94;26.88;99172.67;105815;1278;99287;-64
2022/09/07 11:09:08;;;;;;;17.60;6.90;;;;;;;26.81;27.11;99167.92;105849;1277;113365;-64
2022/09/07 11:12:14;;;;;;;16.60;6.70;;;;;;;26.69;26.99;99163.93;105958;1276;99262;-64
2022/09/07 11:14:52;;;;;;;15.50;6.10;;;;;;;26.59;27.19;99162.65;105881;1277;108694;-65
2022/09/07 11:17:26;;;;;;;14.20;5.70;;;;;;;26.52;27.12;99163.46;105881;1276;99240;-66
2022/09/07 11:20:27;;;;;;;17.60;6.60;;;;;;;26.45;27.20;99164.29;105968;1277;99287;-66
2022/09/07 11:23:21;;;;;;;16.40;6.00;;;;;;;26.37;27.33;99163.28;105952;1277;113465;-67
2022/09/07 11:26:10;;;;;;;14.90;6.20;;;;;;;26.33;27.29;99163.21;106011;1276;99335;-64
2022/09/07 11:28:49;;;;;;;14.00;5.40;;;;;;;26.29;27.38;99160.41;106014;1277;107822;-68
2022/09/07 11:31:58;;;;;;;18.10;5.70;;;;;;;26.23;27.30;99161.27;105900;1277;96568;-65
2022/09/07 11:34:41;;;;;;;16.10;5.20;;;;;;;26.16;27.23;99160.81;105815;1278;99259;-67
2022/09/07 11:37:35;;;;;;;17.70;6.20;;;;;;;26.03;27.54;99160.05;105794;1279;113473;-67
2022/09/07 11:40:16;;;;;;;14.30;5.50;;;;;;;25.96;27.42;99154.89;105884;1279;99326;-66
2022/09/07 11:42:58;;;;;;;17.90;5.90;;;;;;;25.92;27.56;99153.84;105882;1277;108444;-67
2022/09/07 11:46:06;;;;;;;12.00;5.20;;;;;;;25.85;27.53;99151.20;105979;1277;99307;-67
2022/09/07 11:48:54;;;;;;;14.70;5.20;;;;;;;25.64;27.62;99149.02;105980;1279;99323;-68
2022/09/07 11:51:27;;;;;;;15.30;5.10;;;;;;;25.55;27.70;99152.44;105997;1277;112792;-69
2022/09/07 11:54:16;;;;;;;11.60;4.80;;;;;;;25.51;27.68;99149.58;106010;1277;96782;-66
2022/09/07 11:56:54;;;;;;;19.70;5.60;;;;;;;25.49;27.91;99145.21;105855;1279;108364;-68